^^
Datos históricos de la estación: Murcia-Puente Tocinos
Diario Informe para Septiembre 1, 2019 Unidades:  Métrico    Inglés   Ambas
Diario Semanal Mensual Anual Configurable
  Máximo: Mínimo: Media:
Temperatura: 34.1 °C 22.2 °C 27.8 °C
Punto de rocio: 20.0 °C 14.6 °C 17.9 °C
Humedad: 78% 34% 57%
Velocidad viento: 19.3km/h 0.0km/h 6.2km/h
Racha viento: 30.6km/h - -
Viento- - SSE
Presión: 1013.4 hPa 1009.7 hPa -
Precipitación: 0.0 mm    
Historical Graphs
 
 
Tabla de datos para Septiembre 1, 2019
Hora Temperatura Punto de rocio Presión Viento Velocidad viento Racha viento Humedad Intensidad lluvia(por hora) Nubes
00:00 26.3 °C 18.4 °C 1013.2 hPa NE 3.2 km/h 4.8 km/h 62% 0.0 mm CLR
00:05 26.3 °C 18.7 °C 1013.2 hPa ENE 3.2 km/h 4.8 km/h 63% 0.0 mm CLR
00:10 26.2 °C 18.6 °C 1013.2 hPa ENE 1.6 km/h 4.8 km/h 63% 0.0 mm CLR
00:15 26.1 °C 18.5 °C 1013.2 hPa ENE 1.6 km/h 3.2 km/h 63% 0.0 mm CLR
00:20 26.1 °C 18.5 °C 1013.2 hPa ENE 1.6 km/h 4.8 km/h 63% 0.0 mm CLR
00:25 26.1 °C 18.5 °C 1013.2 hPa ENE 1.6 km/h   63% 0.0 mm CLR
00:30 26.0 °C 18.7 °C 1013.2 hPa Calm   3.7 km/h 64% 0.0 mm CLR
00:35 25.9 °C 18.6 °C 1013.3 hPa Calm   8.0 km/h 64% 0.0 mm CLR
00:40 25.9 °C 18.6 °C 1013.3 hPa East 3.2 km/h 8.0 km/h 64% 0.0 mm CLR
00:45 25.8 °C 18.2 °C 1013.3 hPa ESE 3.2 km/h 8.0 km/h 63% 0.0 mm CLR
00:50 25.7 °C 18.4 °C 1013.3 hPa ESE 3.2 km/h 6.4 km/h 64% 0.0 mm CLR
00:55 25.7 °C 18.4 °C 1013.3 hPa ESE 3.2 km/h 8.0 km/h 64% 0.0 mm CLR
01:00 25.7 °C 18.6 °C 1013.3 hPa ESE 1.6 km/h 3.2 km/h 65% 0.0 mm CLR
01:05 25.6 °C 18.6 °C 1013.4 hPa ESE 1.6 km/h 8.0 km/h 65% 0.0 mm CLR
01:10 25.6 °C 18.3 °C 1013.4 hPa ESE 3.2 km/h 8.0 km/h 64% 0.0 mm CLR
01:15 25.5 °C 17.7 °C 1013.4 hPa ESE 3.2 km/h 6.4 km/h 62% 0.0 mm CLR
01:20 25.4 °C 17.8 °C 1013.3 hPa ESE 3.2 km/h 6.4 km/h 63% 0.0 mm CLR
01:25 25.4 °C 17.8 °C 1013.3 hPa ESE 3.2 km/h 4.8 km/h 63% 0.0 mm CLR
01:30 25.3 °C 17.7 °C 1013.3 hPa ESE 3.2 km/h 8.0 km/h 63% 0.0 mm CLR
01:35 25.2 °C 17.7 °C 1013.4 hPa ESE 3.2 km/h 8.0 km/h 63% 0.0 mm CLR
01:40 25.0 °C 17.7 °C 1013.4 hPa ESE 3.2 km/h 4.8 km/h 64% 0.0 mm CLR
01:45 24.9 °C 17.6 °C 1013.4 hPa ESE 3.2 km/h 4.8 km/h 64% 0.0 mm CLR
01:50 24.8 °C 17.5 °C 1013.2 hPa ESE 3.2 km/h 4.8 km/h 64% 0.0 mm CLR
01:55 24.8 °C 17.8 °C 1013.2 hPa ESE 3.2 km/h 3.2 km/h 65% 0.0 mm CLR
02:00 24.8 °C 17.8 °C 1013.2 hPa ESE 1.6 km/h 4.8 km/h 65% 0.0 mm CLR
02:05 24.7 °C 17.7 °C 1013.2 hPa ESE 1.6 km/h   65% 0.0 mm CLR
02:10 24.7 °C 17.9 °C 1013.2 hPa Calm     66% 0.0 mm CLR
02:15 24.6 °C 18.1 °C 1013.2 hPa Calm     67% 0.0 mm CLR
02:20 24.6 °C 18.1 °C 1013.0 hPa Calm     67% 0.0 mm CLR
02:25 24.5 °C 17.9 °C 1013.0 hPa Calm     67% 0.0 mm CLR
02:30 24.5 °C 18.2 °C 1013.0 hPa Calm   6.4 km/h 68% 0.0 mm CLR
02:35 24.5 °C 18.2 °C 1012.9 hPa Calm   3.2 km/h 68% 0.0 mm CLR
02:40 24.6 °C 18.8 °C 1012.9 hPa South 1.6 km/h 8.0 km/h 70% 0.0 mm CLR
02:45 24.7 °C 19.1 °C 1012.9 hPa South 1.6 km/h 8.0 km/h 71% 0.0 mm CLR
02:50 24.7 °C 18.8 °C 1012.7 hPa South 3.2 km/h 8.0 km/h 70% 0.0 mm CLR
02:55 24.7 °C 18.8 °C 1012.7 hPa SSE 3.2 km/h 8.0 km/h 70% 0.0 mm CLR
03:00 24.6 °C 19.0 °C 1012.7 hPa South 3.2 km/h 11.3 km/h 71% 0.0 mm CLR
03:05 24.6 °C 19.2 °C 1012.6 hPa SSW 3.2 km/h 11.3 km/h 72% 0.0 mm CLR
03:10 24.5 °C 19.1 °C 1012.6 hPa SW 4.8 km/h 8.0 km/h 72% 0.0 mm CLR
03:15 24.5 °C 19.3 °C 1012.6 hPa SW 4.8 km/h 6.4 km/h 73% 0.0 mm CLR
03:20 24.5 °C 19.6 °C 1012.5 hPa SW 3.2 km/h 8.0 km/h 74% 0.0 mm CLR
03:25 24.5 °C 19.8 °C 1012.5 hPa SW 3.2 km/h 8.0 km/h 75% 0.0 mm CLR
03:30 24.5 °C 19.8 °C 1012.5 hPa SSW 3.2 km/h 4.8 km/h 75% 0.0 mm CLR
03:35 24.4 °C 19.9 °C 1012.5 hPa SSW 3.2 km/h 6.4 km/h 76% 0.0 mm CLR
03:40 24.4 °C 19.9 °C 1012.5 hPa SW 3.2 km/h 8.0 km/h 76% 0.0 mm CLR
03:45 24.3 °C 19.6 °C 1012.5 hPa WSW 3.2 km/h 4.8 km/h 75% 0.0 mm CLR
03:50 24.2 °C 19.5 °C 1012.5 hPa WSW 3.2 km/h 3.2 km/h 75% 0.0 mm CLR
03:55 24.1 °C 19.4 °C 1012.5 hPa ESE 2.9 km/h 5.6 km/h 75% 0.0 mm CLR
04:00 23.9 °C 19.4 °C 1012.5 hPa SE 3.2 km/h 8.0 km/h 76% 0.0 mm CLR
04:05 23.6 °C 18.9 °C 1012.4 hPa ESE 3.2 km/h 9.7 km/h 75% 0.0 mm CLR
04:10 23.4 °C 18.9 °C 1012.4 hPa SSE 4.8 km/h 9.7 km/h 76% 0.0 mm CLR
04:15 23.3 °C 18.8 °C 1012.4 hPa SSE 4.8 km/h 8.0 km/h 76% 0.0 mm CLR
04:20 23.3 °C 18.8 °C 1012.3 hPa SSE 3.2 km/h 8.0 km/h 76% 0.0 mm CLR
04:25 23.3 °C 18.8 °C 1012.3 hPa SSE 3.2 km/h 6.4 km/h 76% 0.0 mm CLR
04:30 23.3 °C 18.8 °C 1012.3 hPa SSE 3.2 km/h 4.8 km/h 76% 0.0 mm CLR
04:35 23.3 °C 18.8 °C 1012.2 hPa SSE 3.2 km/h   76% 0.0 mm CLR
04:40 23.3 °C 19.1 °C 1012.2 hPa Calm   4.8 km/h 77% 0.0 mm CLR
04:45 23.2 °C 18.9 °C 1012.2 hPa Calm   8.0 km/h 77% 0.0 mm CLR
04:50 23.2 °C 19.2 °C 1012.2 hPa West 1.6 km/h 1.6 km/h 78% 0.0 mm CLR
04:55 23.1 °C 19.1 °C 1012.2 hPa West 1.6 km/h   78% 0.0 mm CLR
05:00 23.1 °C 19.1 °C 1012.2 hPa Calm   1.6 km/h 78% 0.0 mm CLR
05:05 23.1 °C 19.1 °C 1012.3 hPa Calm   3.2 km/h 78% 0.0 mm CLR
05:10 23.1 °C 18.8 °C 1012.3 hPa Calm   3.2 km/h 77% 0.0 mm CLR
05:15 23.0 °C 18.7 °C 1012.3 hPa Calm   3.2 km/h 77% 0.0 mm CLR
05:20 22.9 °C 18.7 °C 1012.2 hPa Calm   3.2 km/h 77% 0.0 mm CLR
05:25 22.9 °C 18.7 °C 1012.2 hPa Calm   8.0 km/h 77% 0.0 mm CLR
05:30 23.0 °C 18.7 °C 1012.2 hPa SSW 1.6 km/h 8.0 km/h 77% 0.0 mm CLR
05:35 23.1 °C 18.6 °C 1012.2 hPa SE 1.6 km/h 4.8 km/h 76% 0.0 mm CLR
05:40 23.1 °C 18.4 °C 1012.2 hPa SE 3.2 km/h 8.0 km/h 75% 0.0 mm CLR
05:45 22.9 °C 18.2 °C 1012.2 hPa SE 3.2 km/h 8.0 km/h 75% 0.0 mm CLR
05:50 22.8 °C 18.1 °C 1012.1 hPa SE 3.2 km/h 8.0 km/h 75% 0.0 mm CLR
05:55 22.8 °C 18.1 °C 1012.1 hPa SE 4.7 km/h 5.6 km/h 75% 0.0 mm CLR
06:00 22.8 °C 18.1 °C 1012.1 hPa SE 3.2 km/h 4.8 km/h 75% 0.0 mm CLR
06:05 22.7 °C 18.1 °C 1012.2 hPa SE 3.2 km/h 1.6 km/h 75% 0.0 mm CLR
06:10 22.7 °C 18.1 °C 1012.2 hPa Calm     75% 0.0 mm CLR
06:15 22.6 °C 17.9 °C 1012.2 hPa Calm     75% 0.0 mm CLR
06:20 22.6 °C 17.9 °C 1012.3 hPa Calm   4.8 km/h 75% 0.0 mm CLR
06:25 22.6 °C 18.2 °C 1012.3 hPa Calm   3.2 km/h 76% 0.0 mm CLR
06:30 22.5 °C 17.8 °C 1012.3 hPa East 1.6 km/h 4.8 km/h 75% 0.0 mm CLR
06:35 22.4 °C 17.9 °C 1012.4 hPa East 1.6 km/h 1.6 km/h 76% 0.0 mm CLR
06:40 22.4 °C 17.7 °C 1012.4 hPa Calm   4.8 km/h 75% 0.0 mm CLR
06:45 22.3 °C 17.9 °C 1012.4 hPa Calm     76% 0.0 mm CLR
06:50 22.2 °C 17.8 °C 1012.3 hPa Calm     76% 0.0 mm CLR
06:55 22.2 °C 17.8 °C 1012.3 hPa Calm     76% 0.0 mm CLR
07:00 22.2 °C 18.0 °C 1012.3 hPa Calm     77% 0.0 mm CLR
07:05 22.3 °C 18.1 °C 1012.5 hPa Calm     77% 0.0 mm CLR
07:10 22.3 °C 18.1 °C 1012.5 hPa Calm   3.2 km/h 77% 0.0 mm CLR
07:15 22.3 °C 18.1 °C 1012.5 hPa Calm   8.0 km/h 77% 0.0 mm CLR
07:20 22.4 °C 18.4 °C 1012.6 hPa SE 3.2 km/h 9.7 km/h 78% 0.0 mm CLR
07:25 22.4 °C 18.4 °C 1012.6 hPa South 3.2 km/h 8.0 km/h 78% 0.0 mm CLR
07:30 22.4 °C 18.2 °C 1012.6 hPa South 3.2 km/h 8.0 km/h 77% 0.0 mm CLR
07:35 22.4 °C 18.2 °C 1012.8 hPa South 3.2 km/h 3.2 km/h 77% 0.0 mm CLR
07:40 22.3 °C 18.1 °C 1012.8 hPa Calm   4.8 km/h 77% 0.0 mm CLR
07:45 22.3 °C 18.1 °C 1012.8 hPa Calm   3.2 km/h 77% 0.0 mm CLR
07:50 22.2 °C 18.2 °C 1012.8 hPa South 1.6 km/h 4.8 km/h 78% 0.0 mm CLR
07:55 22.3 °C 18.3 °C 1012.8 hPa South 1.6 km/h 8.0 km/h 78% 0.0 mm CLR
08:00 22.3 °C 18.1 °C 1012.8 hPa SSW 3.2 km/h 8.0 km/h 77% 0.0 mm CLR
08:05 22.3 °C 18.1 °C 1012.7 hPa SSW 3.2 km/h 11.3 km/h 77% 0.0 mm CLR
08:10 22.3 °C 18.1 °C 1012.7 hPa SSW 8.0 km/h 9.7 km/h 77% 0.0 mm CLR
08:15 22.4 °C 17.9 °C 1012.7 hPa SSW 8.0 km/h 9.7 km/h 76% 0.0 mm CLR
08:20 22.6 °C 17.9 °C 1012.9 hPa SSW 8.0 km/h 11.3 km/h 75% 0.0 mm CLR
08:25 22.6 °C 18.0 °C 1012.9 hPa SSW 8.0 km/h 11.3 km/h 75% 0.0 mm CLR
08:30 22.7 °C 18.1 °C 1012.9 hPa SSW 8.0 km/h 9.7 km/h 75% 0.0 mm CLR
08:35 22.8 °C 18.1 °C 1012.9 hPa SSW 8.0 km/h 11.3 km/h 75% 0.0 mm CLR
08:40 22.8 °C 18.1 °C 1012.9 hPa SSW 8.0 km/h 12.9 km/h 75% 0.0 mm CLR
08:45 22.9 °C 18.2 °C 1012.9 hPa SW 8.0 km/h 11.3 km/h 75% 0.0 mm CLR
08:50 23.0 °C 17.9 °C 1012.9 hPa SW 8.0 km/h 14.5 km/h 73% 0.0 mm CLR
08:55 23.0 °C 17.9 °C 1012.9 hPa SW 8.0 km/h 12.9 km/h 73% 0.0 mm CLR
09:00 23.1 °C 18.0 °C 1012.9 hPa SW 8.0 km/h 12.9 km/h 73% 0.0 mm CLR
09:05 23.2 °C 18.1 °C 1012.9 hPa SSW 8.0 km/h 11.3 km/h 73% 0.0 mm CLR
09:10 23.3 °C 17.9 °C 1012.9 hPa SW 6.4 km/h 11.1 km/h 72% 0.0 mm CLR
09:15 23.3 °C 18.0 °C 1012.9 hPa SW 8.0 km/h 9.7 km/h 72% 0.0 mm CLR
09:20 23.5 °C 17.9 °C 1013.0 hPa SSW 4.8 km/h 9.7 km/h 71% 0.0 mm CLR
09:25 23.6 °C 18.0 °C 1013.0 hPa SSW 4.8 km/h 8.0 km/h 71% 0.0 mm CLR
09:30 23.7 °C 17.9 °C 1013.0 hPa SW 4.8 km/h 8.0 km/h 70% 0.0 mm CLR
09:35 23.8 °C 18.0 °C 1013.1 hPa SW 4.8 km/h 9.7 km/h 70% 0.0 mm CLR
09:40 23.8 °C 17.8 °C 1013.1 hPa SW 4.8 km/h 9.7 km/h 69% 0.0 mm CLR
09:45 24.0 °C 17.9 °C 1013.1 hPa SW 4.8 km/h 9.7 km/h 69% 0.0 mm CLR
09:50 24.2 °C 18.2 °C 1013.1 hPa SSW 4.8 km/h 11.3 km/h 69% 0.0 mm CLR
09:55 24.4 °C 18.3 °C 1013.1 hPa South 4.8 km/h 11.3 km/h 69% 0.0 mm CLR
10:00 24.5 °C 18.4 °C 1013.1 hPa SSE 8.0 km/h 11.3 km/h 69% 0.0 mm CLR
10:05 24.7 °C 18.8 °C 1013.1 hPa South 8.0 km/h 9.7 km/h 70% 0.0 mm CLR
10:10 24.8 °C 18.9 °C 1013.1 hPa South 4.8 km/h 9.7 km/h 70% 0.0 mm CLR
10:15 25.0 °C 19.4 °C 1013.1 hPa SSE 4.8 km/h 12.9 km/h 71% 0.0 mm CLR
10:20 25.0 °C 19.4 °C 1013.0 hPa SSW 8.0 km/h 9.7 km/h 71% 0.0 mm CLR
10:25 25.3 °C 19.4 °C 1013.0 hPa SSE 8.0 km/h 8.0 km/h 70% 0.0 mm CLR
10:30 25.6 °C 19.3 °C 1013.0 hPa SSE 3.2 km/h 9.7 km/h 68% 0.0 mm CLR
10:35 25.7 °C 18.8 °C 1013.0 hPa SSW 3.2 km/h 8.0 km/h 66% 0.0 mm CLR
10:40 25.9 °C 19.1 °C 1013.0 hPa West 3.9 km/h 5.8 km/h 66% 0.0 mm CLR
10:45 26.1 °C 19.0 °C 1013.0 hPa West 3.2 km/h 8.0 km/h 65% 0.0 mm CLR
10:50 26.4 °C 19.1 °C 1013.0 hPa SW 3.2 km/h 8.0 km/h 64% 0.0 mm CLR
10:55 26.8 °C 18.9 °C 1013.0 hPa SE 3.2 km/h 8.0 km/h 62% 0.0 mm CLR
11:00 27.1 °C 18.9 °C 1013.0 hPa ESE 3.2 km/h 6.4 km/h 61% 0.0 mm CLR
11:05 27.3 °C 19.1 °C 1013.0 hPa East 3.2 km/h 6.4 km/h 61% 0.0 mm CLR
11:10 27.6 °C 18.9 °C 1013.0 hPa North 3.2 km/h 9.7 km/h 59% 0.0 mm CLR
11:15 27.7 °C 18.9 °C 1013.0 hPa NW 3.2 km/h 8.0 km/h 59% 0.0 mm CLR
11:20 27.9 °C 18.9 °C 1012.9 hPa NW 3.2 km/h 6.4 km/h 58% 0.0 mm CLR
11:25 28.0 °C 18.9 °C 1012.9 hPa North 2.9 km/h 7.4 km/h 58% 0.0 mm CLR
11:30 28.1 °C 18.8 °C 1012.9 hPa NNW 3.2 km/h 8.0 km/h 57% 0.0 mm CLR
11:35 28.3 °C 18.7 °C 1012.8 hPa WNW 4.7 km/h 7.6 km/h 56% 0.0 mm CLR
11:40 28.3 °C 18.9 °C 1012.8 hPa NW 3.2 km/h 8.0 km/h 57% 0.0 mm CLR
11:45 28.6 °C 19.2 °C 1012.8 hPa West 3.2 km/h 4.8 km/h 57% 0.0 mm CLR
11:50 28.9 °C 19.2 °C 1012.9 hPa SSW 3.2 km/h 9.7 km/h 56% 0.0 mm CLR
11:55 29.1 °C 19.4 °C 1012.9 hPa SE 3.2 km/h 9.7 km/h 56% 0.0 mm CLR
12:00 29.1 °C 19.2 °C 1012.9 hPa SE 4.8 km/h 8.0 km/h 55% 0.0 mm CLR
12:05 29.3 °C 19.4 °C 1012.8 hPa ESE 4.8 km/h 9.7 km/h 55% 0.0 mm CLR
12:10 29.7 °C 19.7 °C 1012.8 hPa NE 3.2 km/h 9.7 km/h 55% 0.0 mm CLR
12:15 29.9 °C 19.6 °C 1012.8 hPa NNE 3.2 km/h 8.0 km/h 54% 0.0 mm CLR
12:20 30.0 °C 19.7 °C 1012.7 hPa NNE 4.8 km/h 11.3 km/h 54% 0.0 mm CLR
12:25 29.9 °C 19.6 °C 1012.7 hPa NW 5.0 km/h 9.3 km/h 54% 0.0 mm CLR
12:30 29.9 °C 19.9 °C 1012.7 hPa NNE 8.0 km/h 14.5 km/h 55% 0.0 mm CLR
12:35 29.9 °C 19.6 °C 1012.6 hPa ENE 8.0 km/h 14.5 km/h 54% 0.0 mm CLR
12:40 30.1 °C 19.4 °C 1012.6 hPa East 8.0 km/h 12.9 km/h 53% 0.0 mm CLR
12:45 30.3 °C 19.7 °C 1012.6 hPa East 8.0 km/h 12.9 km/h 53% 0.0 mm CLR
12:50 30.3 °C 19.7 °C 1012.4 hPa NE 8.0 km/h 11.3 km/h 53% 0.0 mm CLR
12:55 30.4 °C 19.7 °C 1012.4 hPa NE 8.0 km/h 14.5 km/h 53% 0.0 mm CLR
13:00 30.4 °C 19.8 °C 1012.4 hPa NE 8.0 km/h 14.5 km/h 53% 0.0 mm CLR
13:05 30.7 °C 19.4 °C 1012.2 hPa ENE 8.0 km/h 12.9 km/h 51% 0.0 mm CLR
13:10 30.8 °C 19.2 °C 1012.2 hPa NNW 6.9 km/h 13.0 km/h 50% 0.0 mm CLR
13:15 30.9 °C 19.3 °C 1012.2 hPa ESE 6.9 km/h 13.0 km/h 50% 0.0 mm CLR
13:20 31.1 °C 19.1 °C 1012.0 hPa NE 8.0 km/h 19.3 km/h 49% 0.0 mm CLR
13:25 31.3 °C 19.3 °C 1012.0 hPa NE 8.0 km/h 12.9 km/h 49% 0.0 mm CLR
13:30 31.7 °C 19.0 °C 1012.0 hPa ENE 8.0 km/h 12.9 km/h 47% 0.0 mm CLR
13:35 32.0 °C 18.9 °C 1011.8 hPa ENE 8.0 km/h 19.3 km/h 46% 0.0 mm CLR
13:40 32.2 °C 19.1 °C 1011.8 hPa ENE 8.0 km/h 14.5 km/h 46% 0.0 mm CLR
13:45 32.3 °C 19.2 °C 1011.8 hPa East 8.0 km/h 14.5 km/h 46% 0.0 mm CLR
13:50 32.3 °C 19.2 °C 1011.7 hPa East 8.0 km/h 16.1 km/h 46% 0.0 mm CLR
13:55 32.4 °C 18.9 °C 1011.7 hPa East 8.0 km/h 16.1 km/h 45% 0.0 mm CLR
14:00 32.6 °C 19.1 °C 1011.7 hPa East 8.0 km/h 14.5 km/h 45% 0.0 mm CLR
14:05 32.6 °C 19.1 °C 1011.6 hPa East 8.0 km/h 22.5 km/h 45% 0.0 mm CLR
14:10 32.6 °C 18.7 °C 1011.6 hPa ESE 12.9 km/h 20.9 km/h 44% 0.0 mm CLR
14:15 32.8 °C 18.6 °C 1011.6 hPa ESE 12.9 km/h 22.5 km/h 43% 0.0 mm CLR
14:20 32.9 °C 19.1 °C 1011.3 hPa East 11.1 km/h 14.8 km/h 44% 0.0 mm CLR
14:25 33.2 °C 18.9 °C 1011.3 hPa ESE 11.3 km/h 19.3 km/h 43% 0.0 mm CLR
14:30 33.0 °C 19.1 °C 1011.3 hPa ESE 12.9 km/h 27.4 km/h 44% 0.0 mm CLR
14:35 32.9 °C 19.4 °C 1011.3 hPa ESE 12.9 km/h 25.7 km/h 45% 0.0 mm CLR
14:40 32.7 °C 19.6 °C 1011.3 hPa ESE 16.1 km/h 27.4 km/h 46% 0.0 mm CLR
14:45 32.8 °C 20.0 °C 1011.3 hPa ESE 16.1 km/h 20.9 km/h 47% 0.0 mm CLR
14:50 32.8 °C 19.7 °C 1011.1 hPa ESE 14.5 km/h 27.4 km/h 46% 0.0 mm CLR
14:55 32.8 °C 19.7 °C 1011.1 hPa ESE 14.5 km/h 25.7 km/h 46% 0.0 mm CLR
15:00 32.8 °C 19.3 °C 1011.1 hPa ESE 16.1 km/h 25.7 km/h 45% 0.0 mm CLR
15:05 33.0 °C 18.8 °C 1011.0 hPa ESE 16.1 km/h 27.4 km/h 43% 0.0 mm CLR
15:10 33.1 °C 19.2 °C 1011.0 hPa ESE 16.1 km/h 24.1 km/h 44% 0.0 mm CLR
15:15 33.3 °C 19.0 °C 1011.0 hPa ESE 16.1 km/h 27.4 km/h 43% 0.0 mm CLR
15:20 33.3 °C 19.0 °C 1010.8 hPa ESE 16.1 km/h 22.2 km/h 43% 0.0 mm CLR
15:25 33.2 °C 18.9 °C 1010.8 hPa ESE 16.1 km/h 22.5 km/h 43% 0.0 mm CLR
15:30 33.4 °C 19.1 °C 1010.8 hPa ESE 12.9 km/h 19.3 km/h 43% 0.0 mm CLR
15:35 33.6 °C 18.9 °C 1010.6 hPa ESE 12.9 km/h 24.1 km/h 42% 0.0 mm CLR
15:40 33.6 °C 18.6 °C 1010.6 hPa SE 12.9 km/h 25.7 km/h 41% 0.0 mm CLR
15:45 33.8 °C 18.3 °C 1010.6 hPa SE 12.9 km/h 22.5 km/h 40% 0.0 mm CLR
15:50 33.8 °C 17.5 °C 1010.5 hPa SE 12.9 km/h 24.1 km/h 38% 0.0 mm CLR
15:55 33.7 °C 17.8 °C 1010.5 hPa SE 12.9 km/h 24.1 km/h 39% 0.0 mm CLR
16:00 33.8 °C 17.9 °C 1010.5 hPa SE 14.5 km/h 22.5 km/h 39% 0.0 mm CLR
16:05 33.9 °C 18.0 °C 1010.2 hPa ESE 14.5 km/h 24.1 km/h 39% 0.0 mm CLR
16:10 33.9 °C 17.6 °C 1010.2 hPa ESE 14.5 km/h 24.1 km/h 38% 0.0 mm CLR
16:15 34.1 °C 16.9 °C 1010.2 hPa SE 14.5 km/h 24.1 km/h 36% 0.0 mm CLR
16:20 34.1 °C 16.4 °C 1010.3 hPa SE 12.9 km/h 24.1 km/h 35% 0.0 mm CLR
16:25 34.0 °C 16.3 °C 1010.3 hPa SSE 12.9 km/h 22.5 km/h 35% 0.0 mm CLR
16:30 33.9 °C 16.3 °C 1010.3 hPa SE 14.5 km/h 24.1 km/h 35% 0.0 mm CLR
16:35 33.8 °C 16.7 °C 1010.2 hPa SE 14.5 km/h 30.6 km/h 36% 0.0 mm CLR
16:40 33.7 °C 17.0 °C 1010.2 hPa SE 19.3 km/h 25.7 km/h 37% 0.0 mm CLR
16:45 34.1 °C 16.9 °C 1010.2 hPa SE 19.3 km/h 25.7 km/h 36% 0.0 mm CLR
16:50 34.1 °C 16.9 °C 1010.1 hPa SE 12.9 km/h 24.1 km/h 36% 0.0 mm CLR
16:55 34.1 °C 16.9 °C 1010.1 hPa SSE 12.9 km/h 30.6 km/h 36% 0.0 mm CLR
17:00 33.9 °C 16.7 °C 1010.1 hPa SE 16.1 km/h 27.4 km/h 36% 0.0 mm CLR
17:05 33.9 °C 17.2 °C 1009.9 hPa SE 16.1 km/h 22.5 km/h 37% 0.0 mm CLR
17:10 33.9 °C 16.7 °C 1009.9 hPa SE 12.9 km/h 20.9 km/h 36% 0.0 mm CLR
17:15 34.0 °C 16.8 °C 1009.9 hPa SE 12.9 km/h 27.4 km/h 36% 0.0 mm CLR
17:20 33.9 °C 16.3 °C 1009.7 hPa SE 12.9 km/h 20.9 km/h 35% 0.0 mm CLR
17:25 33.7 °C 16.6 °C 1009.7 hPa SE 12.9 km/h 24.1 km/h 36% 0.0 mm CLR
17:30 33.8 °C 16.6 °C 1009.7 hPa SE 14.5 km/h 24.1 km/h 36% 0.0 mm CLR
17:35 33.8 °C 16.2 °C 1009.7 hPa SE 14.5 km/h 20.9 km/h 35% 0.0 mm CLR
17:40 33.8 °C 15.7 °C 1009.7 hPa SE 12.9 km/h 22.5 km/h 34% 0.0 mm CLR
17:45 33.7 °C 15.7 °C 1009.7 hPa SE 12.9 km/h 25.7 km/h 34% 0.0 mm CLR
17:50 33.8 °C 15.7 °C 1009.7 hPa SE 14.5 km/h 22.5 km/h 34% 0.0 mm CLR
17:55 33.6 °C 15.6 °C 1009.7 hPa SE 14.5 km/h 24.1 km/h 34% 0.0 mm CLR
18:00 33.3 °C 16.2 °C 1009.7 hPa SSE 16.1 km/h 29.0 km/h 36% 0.0 mm CLR
18:05 33.3 °C 16.6 °C 1009.9 hPa South 16.1 km/h 24.1 km/h 37% 0.0 mm CLR
18:10 33.4 °C 16.7 °C 1009.9 hPa SSE 13.7 km/h 18.5 km/h 37% 0.0 mm CLR
18:15 33.3 °C 16.6 °C 1009.9 hPa SSE 12.9 km/h 22.5 km/h 37% 0.0 mm CLR
18:20 33.2 °C 16.6 °C 1009.9 hPa SSE 12.9 km/h 20.9 km/h 37% 0.0 mm CLR
18:25 33.2 °C 16.6 °C 1009.9 hPa SE 12.9 km/h 22.5 km/h 37% 0.0 mm CLR
18:30 33.1 °C 16.4 °C 1009.9 hPa SE 11.3 km/h 24.1 km/h 37% 0.0 mm CLR
18:35 32.9 °C 16.3 °C 1010.0 hPa SE 11.3 km/h 24.1 km/h 37% 0.0 mm CLR
18:40 32.8 °C 16.2 °C 1010.0 hPa SE 12.9 km/h 19.3 km/h 37% 0.0 mm CLR
18:45 32.5 °C 16.3 °C 1010.0 hPa SE 12.9 km/h 24.1 km/h 38% 0.0 mm CLR
18:50 32.2 °C 16.1 °C 1010.1 hPa SE 12.9 km/h 22.5 km/h 38% 0.0 mm CLR
18:55 32.2 °C 16.4 °C 1010.1 hPa SE 12.9 km/h 17.7 km/h 39% 0.0 mm CLR
19:00 32.1 °C 16.4 °C 1010.1 hPa SE 11.3 km/h 20.9 km/h 39% 0.0 mm CLR
19:05 32.0 °C 16.3 °C 1010.2 hPa SE 11.3 km/h 19.3 km/h 39% 0.0 mm CLR
19:10 31.9 °C 16.2 °C 1010.2 hPa SE 11.3 km/h 16.1 km/h 39% 0.0 mm CLR
19:15 32.1 °C 15.9 °C 1010.2 hPa SE 11.3 km/h 16.1 km/h 38% 0.0 mm CLR
19:20 31.9 °C 15.8 °C 1010.1 hPa SE 11.3 km/h 19.3 km/h 38% 0.0 mm CLR
19:25 32.0 °C 15.5 °C 1010.1 hPa SE 11.3 km/h 17.7 km/h 37% 0.0 mm CLR
19:30 32.2 °C 15.7 °C 1010.1 hPa SE 8.0 km/h 12.9 km/h 37% 0.0 mm CLR
19:35 32.3 °C 15.3 °C 1010.0 hPa SE 8.0 km/h 16.1 km/h 36% 0.0 mm CLR
19:40 32.2 °C 14.8 °C 1010.0 hPa SE 9.7 km/h 16.1 km/h 35% 0.0 mm CLR
19:45 32.1 °C 15.2 °C 1010.0 hPa SE 9.7 km/h 16.1 km/h 36% 0.0 mm CLR
19:50 31.9 °C 14.6 °C 1010.1 hPa SE 11.3 km/h 17.7 km/h 35% 0.0 mm CLR
19:55 31.8 °C 14.9 °C 1010.1 hPa SE 11.3 km/h 19.3 km/h 36% 0.0 mm CLR
20:00 31.7 °C 14.8 °C 1010.1 hPa SE 9.7 km/h 12.9 km/h 36% 0.0 mm CLR
20:05 31.6 °C 14.7 °C 1010.2 hPa SE 9.7 km/h 14.5 km/h 36% 0.0 mm CLR
20:10 31.5 °C 15.1 °C 1010.2 hPa SE 7.6 km/h 11.1 km/h 37% 0.0 mm CLR
20:15 31.4 °C 14.9 °C 1010.2 hPa SE 8.0 km/h 11.3 km/h 37% 0.0 mm CLR
20:20 31.3 °C 15.3 °C 1010.4 hPa SE 8.0 km/h 11.3 km/h 38% 0.0 mm CLR
20:25 31.2 °C 15.2 °C 1010.4 hPa ESE 8.0 km/h 8.0 km/h 38% 0.0 mm CLR
20:30 31.1 °C 15.1 °C 1010.4 hPa ESE 3.2 km/h 8.0 km/h 38% 0.0 mm CLR
20:35 31.0 °C 15.0 °C 1010.7 hPa ESE 3.2 km/h 8.0 km/h 38% 0.0 mm CLR
20:40 30.8 °C 14.8 °C 1010.7 hPa ESE 3.2 km/h 9.7 km/h 38% 0.0 mm CLR
20:45 30.7 °C 15.2 °C 1010.7 hPa SE 3.2 km/h 9.7 km/h 39% 0.0 mm CLR
20:50 30.7 °C 15.2 °C 1010.8 hPa SE 4.8 km/h 8.0 km/h 39% 0.0 mm CLR
20:55 30.6 °C 15.4 °C 1010.8 hPa SE 4.8 km/h 8.0 km/h 40% 0.0 mm CLR
21:00 30.4 °C 15.7 °C 1010.8 hPa ESE 3.2 km/h 8.0 km/h 41% 0.0 mm CLR
21:05 30.2 °C 15.8 °C 1011.0 hPa ESE 3.2 km/h 9.7 km/h 42% 0.0 mm CLR
21:10 29.9 °C 16.3 °C 1011.0 hPa ESE 4.8 km/h 12.9 km/h 44% 0.0 mm CLR
21:15 29.6 °C 16.4 °C 1011.0 hPa ESE 4.8 km/h 12.9 km/h 45% 0.0 mm CLR
21:20 29.3 °C 16.8 °C 1011.1 hPa ESE 8.0 km/h 14.5 km/h 47% 0.0 mm CLR
21:25 29.1 °C 16.9 °C 1011.1 hPa ESE 8.0 km/h 11.3 km/h 48% 0.0 mm CLR
21:30 28.9 °C 17.1 °C 1011.1 hPa SE 8.0 km/h 9.7 km/h 49% 0.0 mm CLR
21:35 28.9 °C 17.1 °C 1011.3 hPa SE 8.0 km/h 9.7 km/h 49% 0.0 mm CLR
21:40 28.8 °C 17.0 °C 1011.3 hPa SE 3.2 km/h 9.7 km/h 49% 0.0 mm CLR
21:45 28.8 °C 17.3 °C 1011.3 hPa ESE 3.2 km/h 8.0 km/h 50% 0.0 mm CLR
21:50 28.7 °C 17.2 °C 1011.6 hPa ESE 3.2 km/h 9.7 km/h 50% 0.0 mm CLR
21:55 28.6 °C 17.2 °C 1011.6 hPa ESE 3.2 km/h 9.7 km/h 50% 0.0 mm CLR
22:00 28.5 °C 17.4 °C 1011.6 hPa ESE 3.2 km/h 8.0 km/h 51% 0.0 mm CLR
22:05 28.4 °C 17.3 °C 1011.7 hPa East 3.2 km/h 8.0 km/h 51% 0.0 mm CLR
22:10 28.3 °C 17.2 °C 1011.7 hPa ENE 3.2 km/h 8.0 km/h 51% 0.0 mm CLR
22:15 28.2 °C 17.1 °C 1011.7 hPa ENE 3.2 km/h 8.0 km/h 51% 0.0 mm CLR
22:20 28.2 °C 17.4 °C 1011.8 hPa East 3.2 km/h 4.8 km/h 52% 0.0 mm CLR
22:25 28.1 °C 17.3 °C 1011.8 hPa East 3.2 km/h 6.4 km/h 52% 0.0 mm CLR
22:30 28.1 °C 17.3 °C 1011.8 hPa East 3.2 km/h 8.0 km/h 52% 0.0 mm CLR
22:35 28.0 °C 17.2 °C 1011.7 hPa East 3.2 km/h 8.0 km/h 52% 0.0 mm CLR
22:40 27.9 °C 17.1 °C 1011.7 hPa East 3.2 km/h 8.0 km/h 52% 0.0 mm CLR
22:45 27.9 °C 17.1 °C 1011.7 hPa East 3.2 km/h 8.0 km/h 52% 0.0 mm CLR
22:50 27.8 °C 17.3 °C 1011.7 hPa ENE 3.2 km/h 8.0 km/h 53% 0.0 mm CLR
22:55 27.7 °C 17.6 °C 1011.7 hPa NE 3.2 km/h 8.0 km/h 54% 0.0 mm CLR
23:00 27.6 °C 17.4 °C 1011.7 hPa NNE 3.2 km/h 8.0 km/h 54% 0.0 mm CLR
23:05 27.4 °C 17.3 °C 1011.7 hPa NNE 3.2 km/h 8.0 km/h 54% 0.0 mm CLR
23:10 27.3 °C 17.4 °C 1011.7 hPa NNE 3.2 km/h 4.8 km/h 55% 0.0 mm CLR
23:15 27.2 °C 17.3 °C 1011.7 hPa North 3.2 km/h 4.8 km/h 55% 0.0 mm CLR
23:20 26.9 °C 17.4 °C 1011.7 hPa NNW 3.2 km/h 9.7 km/h 56% 0.0 mm CLR
23:25 26.7 °C 17.5 °C 1011.7 hPa NNW 3.2 km/h 8.0 km/h 57% 0.0 mm CLR
23:30 26.6 °C 17.4 °C 1011.7 hPa NNW 3.2 km/h 8.0 km/h 57% 0.0 mm CLR
23:35 26.4 °C 17.4 °C 1011.8 hPa NNW 3.2 km/h 9.7 km/h 58% 0.0 mm CLR
23:40 26.2 °C 17.6 °C 1011.8 hPa NNW 3.2 km/h 8.0 km/h 59% 0.0 mm CLR
23:45 26.2 °C 17.6 °C 1011.8 hPa North 3.2 km/h 8.0 km/h 59% 0.0 mm CLR
23:50 26.1 °C 17.7 °C 1011.9 hPa North 3.2 km/h 8.0 km/h 60% 0.0 mm CLR
23:55 26.1 °C 17.7 °C 1011.9 hPa North 3.2 km/h 9.7 km/h 60% 0.0 mm CLR
Murcia-Puente Tocinos, España
Compliments of Weather Underground - 2.75 mb

La estación de MeteoMurcia.com, publica sus datos en los siguientes proyectos:

Weather Underground PWS IMURCIAP2 Meteoclimatic www.awekas.at

W3Counter
Web Analytics